createdAt,value
2023-02-17T10:34:27.581Z,13.40
2023-02-17T10:37:02.459Z,13.40
2023-02-17T10:39:49.430Z,13.40
2023-02-17T10:42:23.589Z,13.40
2023-02-17T10:44:54.524Z,13.30
2023-02-17T10:47:23.540Z,13.30
2023-02-17T10:49:57.787Z,13.30
2023-02-17T10:52:40.591Z,13.30
2023-02-17T10:55:23.163Z,13.50
2023-02-17T10:58:00.545Z,13.60
2023-02-17T11:00:28.920Z,13.70
2023-02-17T11:02:57.266Z,13.70
2023-02-17T11:05:30.971Z,13.70
2023-02-17T11:08:03.645Z,13.70
2023-02-17T11:10:36.474Z,13.60
2023-02-17T11:13:20.336Z,13.70
2023-02-17T11:15:49.336Z,13.60
2023-02-17T11:18:28.920Z,13.70
2023-02-17T11:21:06.740Z,13.70
2023-02-17T11:23:36.122Z,13.60
2023-02-17T11:26:12.992Z,13.80
2023-02-17T11:28:41.305Z,13.90
2023-02-17T11:31:25.553Z,14.20
2023-02-17T11:33:56.534Z,14.10
2023-02-17T11:36:29.460Z,14.00
2023-02-17T11:39:00.714Z,14.00
2023-02-17T11:41:39.470Z,14.10
2023-02-17T11:44:11.519Z,14.20
2023-02-17T11:46:49.624Z,14.20
2023-02-17T11:49:30.985Z,14.20
2023-02-17T11:52:15.932Z,14.40
2023-02-17T11:55:00.559Z,14.40
2023-02-17T11:57:40.143Z,14.40
2023-02-17T12:00:19.195Z,14.30
2023-02-17T12:03:21.898Z,14.30
2023-02-17T12:06:06.260Z,14.30
2023-02-17T12:08:53.195Z,14.30
2023-02-17T12:11:31.894Z,14.50
2023-02-17T12:14:16.077Z,14.40
2023-02-17T12:16:52.902Z,14.60
2023-02-17T12:19:39.591Z,14.70
2023-02-17T12:22:19.400Z,14.70
2023-02-17T12:25:19.741Z,14.70
2023-02-17T12:28:06.162Z,14.80
2023-02-17T12:30:53.780Z,14.90
2023-02-17T12:33:44.962Z,14.90
2023-02-17T12:36:16.288Z,15.00
2023-02-17T12:38:50.064Z,14.90
2023-02-17T12:41:24.574Z,14.90
2023-02-17T12:43:58.018Z,14.90
2023-02-17T12:46:30.391Z,14.90
2023-02-17T12:49:07.743Z,14.80
2023-02-17T12:51:41.051Z,14.80
2023-02-17T12:54:20.490Z,14.80
2023-02-17T12:57:01.220Z,14.70
2023-02-17T12:59:35.392Z,14.70
2023-02-17T13:02:06.981Z,14.80
2023-02-17T13:04:36.528Z,14.80
2023-02-17T13:07:37.679Z,14.70
2023-02-17T13:10:09.241Z,14.80
2023-02-17T13:12:42.928Z,14.70
2023-02-17T13:15:36.719Z,14.70
2023-02-17T13:18:08.727Z,14.80
2023-02-17T13:20:53.011Z,14.80
2023-02-17T13:23:38.393Z,14.80
2023-02-17T13:26:27.803Z,14.80
2023-02-17T13:29:35.443Z,14.80
2023-02-17T13:32:06.691Z,14.70
2023-02-17T13:34:38.751Z,14.70
2023-02-17T13:37:21.049Z,14.80
2023-02-17T13:39:49.370Z,14.70
2023-02-17T13:42:39.631Z,14.80
2023-02-17T13:45:26.929Z,14.70
2023-02-17T13:47:58.319Z,14.80
2023-02-17T13:50:34.846Z,14.90
2023-02-17T13:53:04.871Z,14.70
2023-02-17T13:55:33.482Z,14.70
2023-02-17T13:58:01.823Z,14.70
2023-02-17T14:00:33.214Z,14.70
2023-02-17T14:03:12.937Z,14.60
2023-02-17T14:05:46.134Z,14.50
2023-02-17T14:08:20.312Z,14.50
2023-02-17T14:10:49.188Z,14.50
2023-02-17T14:13:17.666Z,14.50
2023-02-17T14:15:57.306Z,14.40
2023-02-17T14:18:37.948Z,14.40
2023-02-17T14:21:10.111Z,14.50
2023-02-17T14:23:48.736Z,14.50
2023-02-17T14:26:31.279Z,14.40
2023-02-17T14:29:01.600Z,14.30
2023-02-17T14:31:31.342Z,14.30
2023-02-17T14:34:05.074Z,14.20
2023-02-17T14:36:37.228Z,14.10
2023-02-17T14:39:08.719Z,14.20
2023-02-17T14:41:37.164Z,14.10
2023-02-17T14:44:06.155Z,14.00
2023-02-17T14:46:36.260Z,13.90
2023-02-17T14:49:05.053Z,13.90
2023-02-17T14:51:35.896Z,14.00
2023-02-17T14:54:11.872Z,13.90
2023-02-17T14:56:45.904Z,13.80
2023-02-17T14:59:14.204Z,13.80
2023-02-17T15:01:43.899Z,13.90
2023-02-17T15:04:12.275Z,13.70
2023-02-17T15:06:43.880Z,13.60
2023-02-17T15:09:16.082Z,13.80
2023-02-17T15:11:48.884Z,13.80
2023-02-17T15:14:19.850Z,13.80
2023-02-17T15:16:50.269Z,13.60
2023-02-17T15:19:19.030Z,13.50
2023-02-17T15:21:50.562Z,13.40
2023-02-17T15:24:22.444Z,13.50
2023-02-17T15:26:50.762Z,13.30
2023-02-17T15:29:22.256Z,13.50
2023-02-17T15:31:54.337Z,13.50
2023-02-17T15:34:26.664Z,13.50
2023-02-17T15:36:55.014Z,13.60
2023-02-17T15:39:23.322Z,13.30
2023-02-17T15:41:53.224Z,13.30
2023-02-17T15:44:24.739Z,13.40
2023-02-17T15:46:56.518Z,13.50
2023-02-17T15:49:24.874Z,13.40
2023-02-17T15:51:53.188Z,13.20
2023-02-17T15:54:23.020Z,13.30
2023-02-17T15:56:53.787Z,13.20
2023-02-17T15:59:26.654Z,13.30
2023-02-17T16:01:56.920Z,13.20
2023-02-17T16:04:25.212Z,13.10
2023-02-17T16:06:53.521Z,13.20
2023-02-17T16:09:21.867Z,13.60
2023-02-17T16:11:53.095Z,13.30
2023-02-17T16:14:27.444Z,13.10
2023-02-17T16:16:57.267Z,13.40
2023-02-17T16:19:25.717Z,13.30
2023-02-17T16:21:54.057Z,13.30
2023-02-17T16:24:22.468Z,13.20
2023-02-17T16:26:50.778Z,13.40
2023-02-17T16:29:23.087Z,13.50
2023-02-17T16:31:52.421Z,13.50
2023-02-17T16:34:24.633Z,13.30
2023-02-17T16:36:57.661Z,13.30
2023-02-17T16:39:26.464Z,13.40
2023-02-17T16:41:54.890Z,13.50
2023-02-17T16:44:24.717Z,13.30
2023-02-17T16:46:55.621Z,13.40
2023-02-17T16:49:32.650Z,13.70
2023-02-17T16:52:01.614Z,13.60
2023-02-17T16:54:30.230Z,13.50
2023-02-17T16:57:00.815Z,13.30
2023-02-17T16:59:29.275Z,13.20
2023-02-17T17:01:57.674Z,13.00
2023-02-17T17:04:27.488Z,13.40
2023-02-17T17:06:55.746Z,13.20
2023-02-17T17:09:25.630Z,13.50
2023-02-17T17:11:53.946Z,13.60
2023-02-17T17:14:22.286Z,13.30
2023-02-17T17:16:56.422Z,13.20
2023-02-17T17:19:26.532Z,13.00
2023-02-17T17:21:54.880Z,13.20
2023-02-17T17:24:23.183Z,13.40
2023-02-17T17:26:51.668Z,13.80
2023-02-17T17:29:23.588Z,13.70
2023-02-17T17:31:51.958Z,13.00
2023-02-17T17:34:20.338Z,13.30
2023-02-17T17:36:50.478Z,13.30
2023-02-17T17:39:22.206Z,13.30
2023-02-17T17:41:52.001Z,13.50
2023-02-17T17:44:20.668Z,13.50
2023-02-17T17:46:49.129Z,13.40
2023-02-17T17:49:18.486Z,13.40
2023-02-17T17:51:47.285Z,13.00
2023-02-17T17:54:16.954Z,13.30
2023-02-17T17:56:45.525Z,13.30
2023-02-17T17:59:14.930Z,13.60
2023-02-17T18:01:45.607Z,13.50
2023-02-17T18:04:14.391Z,13.50
2023-02-17T18:06:47.353Z,13.60
2023-02-17T18:09:31.126Z,13.30
2023-02-17T18:12:05.780Z,13.40
2023-02-17T18:14:35.721Z,13.20
2023-02-17T18:17:04.375Z,13.60
2023-02-17T18:19:33.563Z,13.50
2023-02-17T18:22:02.032Z,13.00
2023-02-17T18:24:31.985Z,13.30
2023-02-17T18:27:00.335Z,13.30
2023-02-17T18:29:28.793Z,13.10
2023-02-17T18:31:59.083Z,13.10
2023-02-17T18:34:27.515Z,13.40
2023-02-17T18:36:55.860Z,13.60
2023-02-17T18:39:24.184Z,13.60
2023-02-17T18:41:54.087Z,13.50
2023-02-17T18:44:22.356Z,13.40
2023-02-17T18:46:50.683Z,13.50
2023-02-17T18:49:18.992Z,12.90
2023-02-17T18:51:47.636Z,13.10
2023-02-17T18:54:15.956Z,13.10
2023-02-17T18:56:44.269Z,13.30
2023-02-17T18:59:13.942Z,13.00
2023-02-17T19:01:43.452Z,13.30
2023-02-17T19:04:13.027Z,13.20
2023-02-17T19:06:41.672Z,13.20
2023-02-17T19:09:10.196Z,13.10
2023-02-17T19:11:38.520Z,13.10
2023-02-17T19:14:06.786Z,13.00
2023-02-17T19:16:36.554Z,12.90
2023-02-17T19:19:05.480Z,13.20
2023-02-17T19:21:36.298Z,13.40
2023-02-17T19:24:05.186Z,13.40
2023-02-17T19:26:34.185Z,13.10
2023-02-17T19:29:02.485Z,12.80
2023-02-17T19:31:31.847Z,12.80
2023-02-17T19:34:01.546Z,13.00
2023-02-17T19:36:29.891Z,12.90
2023-02-17T19:38:59.162Z,13.00
2023-02-17T19:41:27.489Z,12.90
2023-02-17T19:43:55.823Z,12.90
2023-02-17T19:46:25.793Z,13.00
2023-02-17T19:48:54.139Z,12.90
2023-02-17T19:51:23.958Z,13.50
2023-02-17T19:53:52.252Z,13.50
2023-02-17T19:56:23.885Z,13.60
2023-02-17T19:58:52.968Z,13.50
2023-02-17T20:01:23.815Z,13.80
2023-02-17T20:03:54.567Z,14.10
2023-02-17T20:13:57.704Z,13.60
2023-02-17T20:18:55.661Z,13.50
2023-02-17T20:21:28.219Z,13.50
2023-02-17T20:23:57.346Z,13.70
2023-02-17T20:26:29.218Z,13.40
2023-02-17T20:28:58.883Z,13.60
2023-02-17T20:31:28.667Z,12.90
2023-02-17T20:33:57.093Z,13.10
2023-02-17T20:36:26.780Z,12.70
2023-02-17T20:38:55.101Z,12.60
2023-02-17T20:41:24.637Z,12.80
2023-02-17T20:43:53.749Z,13.00
2023-02-17T20:46:26.055Z,13.20
2023-02-17T20:48:55.124Z,12.90
2023-02-17T20:51:23.995Z,12.60
2023-02-17T20:53:53.694Z,12.60
2023-02-17T20:56:24.458Z,12.80
2023-02-17T20:58:53.672Z,12.70
2023-02-17T21:01:22.054Z,12.80
2023-02-17T21:03:50.691Z,12.70
2023-02-17T21:06:23.608Z,13.10
2023-02-17T21:08:56.763Z,13.20
2023-02-17T21:11:25.884Z,13.20
2023-02-17T21:13:54.532Z,12.90
2023-02-17T21:16:25.375Z,13.20
2023-02-17T21:18:53.844Z,12.60
2023-02-17T21:21:22.477Z,12.50
2023-02-17T21:23:51.195Z,12.40
2023-02-17T21:26:21.215Z,12.40
2023-02-17T21:28:49.797Z,12.50
2023-02-17T21:31:18.747Z,12.50
2023-02-17T21:33:47.213Z,12.90
2023-02-17T21:36:18.749Z,12.60
2023-02-17T21:38:48.621Z,12.30
2023-02-17T21:41:21.312Z,13.00
2023-02-17T21:44:07.870Z,12.70
2023-02-17T21:46:37.525Z,12.50
2023-02-17T21:49:06.384Z,12.70
2023-02-17T21:51:34.712Z,13.10
2023-02-17T21:54:03.096Z,12.90
2023-02-17T21:56:32.906Z,12.70
2023-02-17T21:59:01.275Z,12.80
2023-02-17T22:01:30.026Z,12.40
2023-02-17T22:03:58.740Z,12.60
2023-02-17T22:06:31.460Z,12.90
2023-02-17T22:09:00.729Z,12.60
2023-02-17T22:11:31.558Z,12.70
2023-02-17T22:14:04.121Z,12.60
2023-02-17T22:16:34.513Z,12.80
2023-02-17T22:19:03.932Z,12.80
2023-02-17T22:21:32.574Z,12.80
2023-02-17T22:24:02.068Z,12.90
2023-02-17T22:26:31.921Z,13.00
2023-02-17T22:29:01.757Z,13.00
2023-02-17T22:31:32.228Z,13.30
2023-02-17T22:34:05.091Z,13.40
2023-02-17T22:36:35.922Z,13.20
2023-02-17T22:39:06.387Z,13.20
2023-02-17T22:41:36.334Z,13.10
2023-02-17T22:44:06.732Z,13.20
2023-02-17T22:46:36.043Z,13.40
2023-02-17T22:49:05.855Z,13.60
2023-02-17T22:51:37.811Z,13.60
2023-02-17T22:54:07.371Z,13.70
2023-02-17T22:56:36.098Z,13.70
2023-02-17T22:59:06.567Z,13.80
2023-02-17T23:01:37.332Z,13.50
2023-02-17T23:04:06.877Z,13.70
2023-02-17T23:06:37.581Z,13.50
2023-02-17T23:09:07.915Z,13.20
2023-02-17T23:11:53.852Z,13.20
2023-02-17T23:14:27.091Z,13.20
2023-02-17T23:16:59.285Z,14.20
2023-02-17T23:19:28.964Z,14.50
2023-02-17T23:22:01.022Z,13.80
2023-02-17T23:24:29.955Z,13.80
2023-02-17T23:27:00.932Z,13.90
2023-02-17T23:29:32.293Z,13.40
2023-02-17T23:32:00.834Z,13.20
2023-02-17T23:34:29.701Z,13.20
2023-02-17T23:36:58.565Z,13.00
2023-02-17T23:39:27.123Z,13.50
2023-02-17T23:41:55.600Z,13.20
2023-02-17T23:44:23.927Z,13.30
2023-02-17T23:46:53.644Z,13.40
2023-02-17T23:49:21.968Z,13.00
2023-02-17T23:54:18.895Z,13.30
2023-02-17T23:56:47.218Z,12.80
2023-02-17T23:59:15.511Z,13.10
